11:28
Airports
Links
Donate
Help keep this website running!
PayPal
Bitcoin
METAR
KMVL 111124Z AUTO 35007KT 2 1/2SM -SN BR FEW005 SCT009 OVC018 M04/M06 A2986 RMK AO2 P0000 T10441056
Current Weather Conditions at KMVL
IFR 11:24:00 11-12-17
Automated station, no observer
Altimeter:29.86 hg
Temp:-4.4°c 25°f
Dew point:-5.6°c 23°f
Wind:7 knots, 8.1 mph, 4 m/s, from 350°
Visibility:2.5 statute miles
1800(OVC) Overcast
900(SCT) Scattered
500(FEW) A few
Past METAR reports
IFR 11:14:00 11-12-17
Automated station, no observer
Altimeter:29.85 hg
Temp:-4.4°c 25°f
Dew point:-5.0°c 23°f
Wind:6 knots, 6.9 mph, 3 m/s, from 360°
Visibility:1.5 statute miles
2100(OVC) Overcast
1600(BKN) Broken
800(SCT) Scattered
KMVL 111114Z AUTO 36006KT 1 1/2SM -SN BR SCT008 BKN016 OVC021 M04/M05 A2985 RMK AO2 P0000 T10441050
IFR 11:09:00 11-12-17
Automated station, no observer
Altimeter:29.85 hg
Temp:-4.4°c 25°f
Dew point:-5.0°c 23°f
Wind:8 knots, 9.2 mph, 4 m/s, from 10°
Visibility:1.25 statute miles
1700(OVC) Overcast
800(BKN) Broken
KMVL 111109Z AUTO 01008KT 1 1/4SM -SN BR BKN008 OVC017 M04/M05 A2985 RMK AO2 P0000 T10441050
IFR 10:54:00 11-12-17
Automated station, no observer
Altimeter:29.85 hg
Temp:-3.9°c 27°f
Dew point:-4.4°c 25°f
Wind:4 knots, 4.6 mph, 2 m/s, from 20°
Visibility:1.5 statute miles
1500(OVC) Overcast
600(FEW) A few
KMVL 111054Z AUTO 02004KT 1 1/2SM -SN BR FEW006 OVC015 M04/M04 A2985 RMK AO2 SLP118 P0000 T10391044
IFR 10:51:00 11-12-17
Automated station, no observer
Altimeter:29.84 hg
Temp:-4.0°c 25°f
Dew point:-4.0°c 25°f
Wind:3 knots, 3.5 mph, 2 m/s, from 20°
Visibility:1.5 statute miles
1500(OVC) Overcast
600(FEW) A few
KMVL 111051Z AUTO 02003KT 1 1/2SM -SN BR FEW006 OVC015 M04/M04 A2984 RMK AO2 P0000
LIFR 10:29:00 11-12-17
Automated station, no observer
Altimeter:29.84 hg
Temp:-3.9°c 27°f
Dew point:-3.9°c 27°f
Wind:0 knots, 0 mph, 0 m/s,
Variable direction
Visibility:1.0 statute miles
0(OVX)
KMVL 111029Z AUTO 00000KT 1SM -SN BR VV012 M04/M04 A2984 RMK AO2 P0000 T10391039
LIFR 10:21:00 11-12-17
Automated station, no observer
Altimeter:29.84 hg
Temp:-3.9°c 27°f
Dew point:-3.9°c 27°f
Wind:3 knots, 3.5 mph, 2 m/s, from 40°
Visibility:0.75 statute miles
2000(OVC) Overcast
1200(BKN) Broken
KMVL 111021Z AUTO 04003KT 3/4SM -SN BR BKN012 OVC020 M04/M04 A2984 RMK AO2 P0000 T10391039
TAF
No TAF for KMVL
Forecast at KMVL
No Forecast Reports for KMVL